createdAt,value
2018-02-07T00:00:37.000Z,26
2018-02-07T00:01:37.000Z,26
2018-02-07T00:02:37.000Z,26
2018-02-07T00:03:37.000Z,26
2018-02-07T00:04:37.000Z,26
2018-02-07T00:05:37.000Z,26
2018-02-07T00:06:37.000Z,26
2018-02-07T00:08:37.000Z,25
2018-02-07T00:09:37.000Z,26
2018-02-07T00:11:37.000Z,26
2018-02-07T00:12:37.000Z,26
2018-02-07T00:13:37.000Z,26
2018-02-07T00:14:37.000Z,26
2018-02-07T00:15:37.000Z,26
2018-02-07T00:16:37.000Z,26
2018-02-07T00:17:37.000Z,26
2018-02-07T00:18:37.000Z,26
2018-02-07T00:20:37.000Z,26
2018-02-07T00:21:37.000Z,26
2018-02-07T00:22:37.000Z,26
2018-02-07T00:23:37.000Z,26
2018-02-07T00:24:37.000Z,26
2018-02-07T00:25:37.000Z,26
2018-02-07T00:26:37.000Z,26
2018-02-07T00:27:37.000Z,26
2018-02-07T00:28:37.000Z,26
2018-02-07T00:30:37.000Z,26
2018-02-07T00:31:37.000Z,26
2018-02-07T00:32:37.000Z,25
2018-02-07T00:33:37.000Z,26
2018-02-07T00:34:37.000Z,26
2018-02-07T00:35:37.000Z,26
2018-02-07T00:36:37.000Z,26
2018-02-07T00:38:37.000Z,25
2018-02-07T00:39:37.000Z,26
2018-02-07T00:40:37.000Z,26
2018-02-07T00:41:37.000Z,26
2018-02-07T00:43:37.000Z,25
2018-02-07T00:44:37.000Z,26
2018-02-07T00:46:37.000Z,25
2018-02-07T00:47:37.000Z,26
2018-02-07T00:49:37.000Z,25
2018-02-07T00:50:37.000Z,26
2018-02-07T00:51:37.000Z,26
2018-02-07T00:52:37.000Z,26
2018-02-07T00:53:37.000Z,26
2018-02-07T00:54:37.000Z,26
2018-02-07T00:56:37.000Z,26
2018-02-07T00:57:37.000Z,26
2018-02-07T00:58:37.000Z,26
2018-02-07T00:59:37.000Z,26
2018-02-07T01:00:37.000Z,26
2018-02-07T01:01:37.000Z,26
2018-02-07T01:03:37.000Z,26
2018-02-07T01:04:37.000Z,26
2018-02-07T01:05:37.000Z,26
2018-02-07T01:06:37.000Z,26
2018-02-07T01:07:37.000Z,26
2018-02-07T01:09:37.000Z,26
2018-02-07T01:10:37.000Z,26
2018-02-07T01:12:37.000Z,26
2018-02-07T01:14:37.000Z,26
2018-02-07T01:15:37.000Z,26
2018-02-07T01:16:37.000Z,26
2018-02-07T01:17:37.000Z,26
2018-02-07T01:18:37.000Z,26
2018-02-07T01:19:37.000Z,26
2018-02-07T01:20:37.000Z,26
2018-02-07T01:21:37.000Z,26
2018-02-07T01:23:37.000Z,26
2018-02-07T01:24:37.000Z,26
2018-02-07T01:25:37.000Z,26
2018-02-07T01:26:37.000Z,26
2018-02-07T01:27:37.000Z,26
2018-02-07T01:28:37.000Z,26
2018-02-07T01:30:37.000Z,26
2018-02-07T01:31:37.000Z,26
2018-02-07T01:32:37.000Z,26
2018-02-07T01:33:37.000Z,26
2018-02-07T01:34:37.000Z,26
2018-02-07T01:35:37.000Z,26
2018-02-07T01:36:37.000Z,26
2018-02-07T01:37:37.000Z,26
2018-02-07T01:38:37.000Z,26
2018-02-07T01:39:37.000Z,26
2018-02-07T01:41:37.000Z,25
2018-02-07T01:43:37.000Z,25
2018-02-07T01:44:37.000Z,26
2018-02-07T01:45:37.000Z,26
2018-02-07T01:46:37.000Z,26
2018-02-07T01:47:37.000Z,26
2018-02-07T01:48:37.000Z,26
2018-02-07T01:49:38.000Z,26
2018-02-07T01:50:38.000Z,26
2018-02-07T01:51:38.000Z,26
2018-02-07T01:52:38.000Z,26
2018-02-07T01:53:38.000Z,26
2018-02-07T01:54:38.000Z,26
2018-02-07T01:55:38.000Z,26
2018-02-07T01:56:38.000Z,26
2018-02-07T01:57:38.000Z,26
2018-02-07T01:58:38.000Z,26
2018-02-07T01:59:38.000Z,25
2018-02-07T02:00:38.000Z,26
2018-02-07T02:01:38.000Z,26
2018-02-07T02:02:38.000Z,26
2018-02-07T02:03:38.000Z,26
2018-02-07T02:04:38.000Z,26
2018-02-07T02:05:38.000Z,26
2018-02-07T02:06:38.000Z,26
2018-02-07T02:08:38.000Z,25
2018-02-07T02:10:38.000Z,25
2018-02-07T02:11:38.000Z,26
2018-02-07T02:12:38.000Z,26
2018-02-07T02:13:38.000Z,26
2018-02-07T02:14:38.000Z,26
2018-02-07T02:15:38.000Z,26
2018-02-07T02:16:38.000Z,26
2018-02-07T02:17:38.000Z,26
2018-02-07T02:18:38.000Z,26
2018-02-07T02:19:38.000Z,26
2018-02-07T02:20:38.000Z,26
2018-02-07T02:22:38.000Z,26
2018-02-07T02:23:38.000Z,26
2018-02-07T02:24:38.000Z,26
2018-02-07T02:26:38.000Z,25
2018-02-07T02:27:38.000Z,26
2018-02-07T02:28:38.000Z,26
2018-02-07T02:29:38.000Z,26
2018-02-07T02:30:38.000Z,26
2018-02-07T02:31:38.000Z,26
2018-02-07T02:32:38.000Z,26
2018-02-07T02:33:38.000Z,26
2018-02-07T02:34:38.000Z,26
2018-02-07T02:36:38.000Z,26
2018-02-07T02:37:38.000Z,26
2018-02-07T02:38:38.000Z,26
2018-02-07T02:39:38.000Z,26
2018-02-07T02:41:38.000Z,26
2018-02-07T02:42:38.000Z,26
2018-02-07T02:43:38.000Z,26
2018-02-07T02:44:38.000Z,26
2018-02-07T02:45:38.000Z,26
2018-02-07T02:46:38.000Z,26
2018-02-07T02:47:38.000Z,26
2018-02-07T02:48:38.000Z,26
2018-02-07T02:49:38.000Z,26
2018-02-07T02:50:38.000Z,26
2018-02-07T02:51:38.000Z,26
2018-02-07T02:52:38.000Z,26
2018-02-07T02:54:37.000Z,25
2018-02-07T02:55:37.000Z,26
2018-02-07T02:57:37.000Z,25
2018-02-07T02:58:37.000Z,26
2018-02-07T02:59:37.000Z,26
2018-02-07T03:00:37.000Z,26
2018-02-07T03:01:37.000Z,26
2018-02-07T03:02:37.000Z,26
2018-02-07T03:03:37.000Z,26
2018-02-07T03:04:37.000Z,26
2018-02-07T03:06:37.000Z,25
2018-02-07T03:07:37.000Z,26
2018-02-07T03:08:37.000Z,26
2018-02-07T03:10:37.000Z,26
2018-02-07T03:11:37.000Z,26
2018-02-07T03:13:37.000Z,26
2018-02-07T03:14:37.000Z,26
2018-02-07T03:15:37.000Z,26
2018-02-07T03:16:37.000Z,26
2018-02-07T03:18:37.000Z,26
2018-02-07T03:19:37.000Z,26
2018-02-07T03:21:37.000Z,26
2018-02-07T03:22:37.000Z,26
2018-02-07T03:23:37.000Z,26
2018-02-07T03:24:37.000Z,26
2018-02-07T03:26:37.000Z,26
2018-02-07T03:27:37.000Z,26
2018-02-07T03:28:37.000Z,26
2018-02-07T03:29:37.000Z,26
2018-02-07T03:30:37.000Z,26
2018-02-07T03:31:37.000Z,26
2018-02-07T03:32:37.000Z,26
2018-02-07T03:33:37.000Z,26
2018-02-07T03:34:37.000Z,26
2018-02-07T03:35:37.000Z,26
2018-02-07T03:36:37.000Z,26
2018-02-07T03:37:37.000Z,26
2018-02-07T03:38:37.000Z,26
2018-02-07T03:39:37.000Z,26
2018-02-07T03:40:37.000Z,26
2018-02-07T03:42:37.000Z,26
2018-02-07T03:43:37.000Z,26
2018-02-07T03:44:37.000Z,26
2018-02-07T03:46:37.000Z,26
2018-02-07T03:47:37.000Z,26
2018-02-07T03:48:37.000Z,26
2018-02-07T03:50:37.000Z,26
2018-02-07T03:51:37.000Z,26
2018-02-07T03:52:37.000Z,26
2018-02-07T03:53:37.000Z,26
2018-02-07T03:54:37.000Z,26
2018-02-07T03:55:37.000Z,26
2018-02-07T03:56:37.000Z,26
2018-02-07T03:57:37.000Z,26
2018-02-07T03:58:37.000Z,26
2018-02-07T03:59:37.000Z,26
2018-02-07T04:00:37.000Z,26
2018-02-07T04:01:37.000Z,26
2018-02-07T04:02:37.000Z,26
2018-02-07T04:04:37.000Z,26
2018-02-07T04:05:37.000Z,26
2018-02-07T04:06:37.000Z,26
2018-02-07T04:07:37.000Z,26
2018-02-07T04:08:37.000Z,26
2018-02-07T04:09:37.000Z,26
2018-02-07T04:10:37.000Z,26
2018-02-07T04:12:37.000Z,26
2018-02-07T04:13:37.000Z,26
2018-02-07T04:14:37.000Z,26
2018-02-07T04:16:37.000Z,26
2018-02-07T04:17:37.000Z,26
2018-02-07T04:18:37.000Z,26
2018-02-07T04:19:37.000Z,26
2018-02-07T04:20:37.000Z,26
2018-02-07T04:21:37.000Z,26
2018-02-07T04:23:37.000Z,26
2018-02-07T04:24:37.000Z,26
2018-02-07T04:26:37.000Z,26
2018-02-07T04:27:37.000Z,26
2018-02-07T04:28:37.000Z,26
2018-02-07T04:29:37.000Z,26
2018-02-07T04:30:37.000Z,26
2018-02-07T04:31:37.000Z,26
2018-02-07T04:32:37.000Z,26
2018-02-07T04:33:37.000Z,27
2018-02-07T04:34:37.000Z,27
2018-02-07T04:35:37.000Z,27
2018-02-07T04:36:37.000Z,27
2018-02-07T04:37:37.000Z,28
2018-02-07T04:38:37.000Z,28
2018-02-07T04:39:37.000Z,28
2018-02-07T04:40:37.000Z,29
2018-02-07T04:41:37.000Z,29
2018-02-07T04:42:37.000Z,29
2018-02-07T04:43:37.000Z,29
2018-02-07T04:44:37.000Z,29
2018-02-07T04:45:37.000Z,29
2018-02-07T04:46:37.000Z,29
2018-02-07T04:47:37.000Z,29
2018-02-07T04:48:37.000Z,29
2018-02-07T04:50:37.000Z,29
2018-02-07T04:51:37.000Z,29
2018-02-07T04:52:37.000Z,29
2018-02-07T04:53:37.000Z,29
2018-02-07T04:54:37.000Z,29
2018-02-07T04:55:37.000Z,29
2018-02-07T04:56:37.000Z,29
2018-02-07T04:57:37.000Z,29
2018-02-07T04:58:37.000Z,29
2018-02-07T04:59:37.000Z,29
2018-02-07T05:00:38.000Z,29
2018-02-07T05:02:38.000Z,29
2018-02-07T05:03:38.000Z,29
2018-02-07T05:04:38.000Z,29
2018-02-07T05:05:38.000Z,29
2018-02-07T05:06:38.000Z,29
2018-02-07T05:08:38.000Z,29
2018-02-07T05:09:38.000Z,29
2018-02-07T05:10:38.000Z,29
2018-02-07T05:11:38.000Z,29
2018-02-07T05:12:38.000Z,29
2018-02-07T05:14:38.000Z,29
2018-02-07T05:15:38.000Z,29
2018-02-07T05:16:38.000Z,29
2018-02-07T05:17:38.000Z,29
2018-02-07T05:18:38.000Z,29
2018-02-07T05:19:38.000Z,29
2018-02-07T05:20:38.000Z,29
2018-02-07T05:21:38.000Z,29
2018-02-07T05:22:38.000Z,28
2018-02-07T05:24:38.000Z,28
2018-02-07T05:25:38.000Z,29
2018-02-07T05:27:38.000Z,29
2018-02-07T05:28:38.000Z,29
2018-02-07T05:29:38.000Z,29
2018-02-07T05:30:38.000Z,29
2018-02-07T05:31:38.000Z,29
2018-02-07T05:32:38.000Z,29
2018-02-07T05:33:38.000Z,29
2018-02-07T05:34:38.000Z,29
2018-02-07T05:35:38.000Z,29
2018-02-07T05:37:38.000Z,29
2018-02-07T05:38:38.000Z,29
2018-02-07T05:40:38.000Z,29
2018-02-07T05:42:38.000Z,29
2018-02-07T05:43:38.000Z,29
2018-02-07T05:44:38.000Z,29
2018-02-07T05:45:38.000Z,29
2018-02-07T05:46:38.000Z,29
2018-02-07T05:47:38.000Z,29
2018-02-07T05:48:38.000Z,29
2018-02-07T05:49:38.000Z,29
2018-02-07T05:50:38.000Z,29
2018-02-07T05:52:38.000Z,29
2018-02-07T05:53:38.000Z,29
2018-02-07T05:54:38.000Z,29
2018-02-07T05:55:38.000Z,29
2018-02-07T05:56:38.000Z,29
2018-02-07T05:57:38.000Z,29
2018-02-07T05:58:38.000Z,29
2018-02-07T05:59:38.000Z,29
2018-02-07T06:00:38.000Z,29
2018-02-07T06:01:38.000Z,29
2018-02-07T06:02:38.000Z,29
2018-02-07T06:03:38.000Z,29
2018-02-07T06:05:37.000Z,29
2018-02-07T06:06:37.000Z,29
2018-02-07T06:07:37.000Z,29
2018-02-07T06:08:37.000Z,29
2018-02-07T06:09:37.000Z,29
2018-02-07T06:10:37.000Z,29
2018-02-07T06:11:37.000Z,29
2018-02-07T06:12:37.000Z,29
2018-02-07T06:13:37.000Z,29
2018-02-07T06:14:37.000Z,29
2018-02-07T06:15:37.000Z,29
2018-02-07T06:16:37.000Z,29
2018-02-07T06:17:37.000Z,29
2018-02-07T06:18:37.000Z,29
2018-02-07T06:20:37.000Z,29
2018-02-07T06:21:37.000Z,29
2018-02-07T06:22:37.000Z,29
2018-02-07T06:23:37.000Z,29
2018-02-07T06:24:37.000Z,29
2018-02-07T06:25:37.000Z,28
2018-02-07T06:26:37.000Z,28
2018-02-07T06:27:37.000Z,28
2018-02-07T06:29:37.000Z,28
2018-02-07T06:30:37.000Z,28
2018-02-07T06:31:37.000Z,28
2018-02-07T06:32:37.000Z,28
2018-02-07T06:33:37.000Z,28
2018-02-07T06:34:37.000Z,28
2018-02-07T06:35:37.000Z,28
2018-02-07T06:37:37.000Z,28
2018-02-07T06:38:37.000Z,28
2018-02-07T06:40:37.000Z,28
2018-02-07T06:41:37.000Z,28
2018-02-07T06:42:37.000Z,28
2018-02-07T06:43:37.000Z,28
2018-02-07T06:44:37.000Z,28
2018-02-07T06:46:37.000Z,28
2018-02-07T06:47:37.000Z,28
2018-02-07T06:49:37.000Z,28
2018-02-07T06:50:37.000Z,28
2018-02-07T06:51:37.000Z,28
2018-02-07T06:52:37.000Z,28
2018-02-07T06:53:37.000Z,28
2018-02-07T06:54:37.000Z,28
2018-02-07T06:55:37.000Z,28
2018-02-07T06:56:37.000Z,28
2018-02-07T06:57:37.000Z,28
2018-02-07T06:58:37.000Z,28
2018-02-07T06:59:37.000Z,28
2018-02-07T07:00:37.000Z,28
2018-02-07T07:02:37.000Z,28
2018-02-07T07:03:37.000Z,28
2018-02-07T07:04:37.000Z,28
2018-02-07T07:06:37.000Z,28
2018-02-07T07:07:37.000Z,28
2018-02-07T07:08:37.000Z,28
2018-02-07T07:09:37.000Z,28
2018-02-07T07:11:37.000Z,27
2018-02-07T07:12:37.000Z,27
2018-02-07T07:13:37.000Z,27
2018-02-07T07:14:37.000Z,27
2018-02-07T07:15:37.000Z,27
2018-02-07T07:16:37.000Z,27
2018-02-07T07:17:37.000Z,27
2018-02-07T07:19:37.000Z,27
2018-02-07T07:20:37.000Z,27
2018-02-07T07:21:37.000Z,26
2018-02-07T07:22:37.000Z,26
2018-02-07T07:23:37.000Z,26
2018-02-07T07:24:37.000Z,26
2018-02-07T07:25:37.000Z,26
2018-02-07T07:26:37.000Z,26
2018-02-07T07:27:37.000Z,26
2018-02-07T07:28:37.000Z,26
2018-02-07T07:29:37.000Z,26
2018-02-07T07:30:37.000Z,26
2018-02-07T07:31:37.000Z,26
2018-02-07T07:32:37.000Z,26
2018-02-07T07:34:37.000Z,26
2018-02-07T07:35:37.000Z,26
2018-02-07T07:36:37.000Z,26
2018-02-07T07:37:37.000Z,26
2018-02-07T07:38:37.000Z,26
2018-02-07T07:39:37.000Z,26
2018-02-07T07:40:37.000Z,26
2018-02-07T07:41:37.000Z,26
2018-02-07T07:42:37.000Z,26
2018-02-07T07:43:37.000Z,26
2018-02-07T07:44:37.000Z,26
2018-02-07T07:45:37.000Z,26
2018-02-07T07:46:37.000Z,26
2018-02-07T07:47:37.000Z,26
2018-02-07T07:49:37.000Z,26
2018-02-07T07:50:37.000Z,26
2018-02-07T07:51:37.000Z,26
2018-02-07T07:52:37.000Z,26
2018-02-07T07:53:37.000Z,26
2018-02-07T07:54:37.000Z,26
2018-02-07T07:55:37.000Z,26
2018-02-07T07:56:37.000Z,26
2018-02-07T07:57:37.000Z,26
2018-02-07T07:58:37.000Z,26
2018-02-07T07:59:37.000Z,25
2018-02-07T08:00:37.000Z,25
2018-02-07T08:01:37.000Z,25
2018-02-07T08:03:37.000Z,24
2018-02-07T08:05:37.000Z,25
2018-02-07T08:06:37.000Z,25
2018-02-07T08:07:37.000Z,25
2018-02-07T08:08:37.000Z,25
2018-02-07T08:09:37.000Z,25
2018-02-07T08:10:37.000Z,25
2018-02-07T08:11:37.000Z,25
2018-02-07T08:12:37.000Z,25
2018-02-07T08:13:37.000Z,25
2018-02-07T08:14:37.000Z,25
2018-02-07T08:15:37.000Z,25
2018-02-07T08:16:37.000Z,25
2018-02-07T08:17:37.000Z,25
2018-02-07T08:18:37.000Z,25
2018-02-07T08:19:37.000Z,25
2018-02-07T08:20:37.000Z,25
2018-02-07T08:21:37.000Z,25
2018-02-07T08:22:37.000Z,25
2018-02-07T08:23:37.000Z,25
2018-02-07T08:24:37.000Z,25
2018-02-07T08:25:37.000Z,25
2018-02-07T08:26:37.000Z,25
2018-02-07T08:28:37.000Z,25
2018-02-07T08:29:37.000Z,25
2018-02-07T08:30:37.000Z,25
2018-02-07T08:31:37.000Z,25
2018-02-07T08:32:37.000Z,25
2018-02-07T08:33:37.000Z,24
2018-02-07T08:34:37.000Z,24
2018-02-07T08:35:37.000Z,24
2018-02-07T08:36:37.000Z,24
2018-02-07T08:38:37.000Z,24
2018-02-07T08:39:37.000Z,24
2018-02-07T08:40:37.000Z,24
2018-02-07T08:41:37.000Z,24
2018-02-07T08:42:37.000Z,24
2018-02-07T08:43:37.000Z,25
2018-02-07T08:44:37.000Z,24
2018-02-07T08:45:37.000Z,24
2018-02-07T08:46:37.000Z,24
2018-02-07T08:47:37.000Z,24
2018-02-07T08:49:37.000Z,24
2018-02-07T08:50:37.000Z,24
2018-02-07T08:51:37.000Z,24
2018-02-07T08:52:37.000Z,24
2018-02-07T08:54:37.000Z,24
2018-02-07T08:55:37.000Z,24
2018-02-07T08:57:37.000Z,24
2018-02-07T08:58:37.000Z,24
2018-02-07T08:59:37.000Z,24
2018-02-07T09:00:37.000Z,24
2018-02-07T09:01:37.000Z,24
2018-02-07T09:02:37.000Z,24
2018-02-07T09:03:37.000Z,24
2018-02-07T09:04:37.000Z,24
2018-02-07T09:05:37.000Z,25
2018-02-07T09:06:37.000Z,24
2018-02-07T09:07:37.000Z,24
2018-02-07T09:08:37.000Z,24
2018-02-07T09:09:37.000Z,24
2018-02-07T09:10:37.000Z,24
2018-02-07T09:11:37.000Z,24
2018-02-07T09:12:37.000Z,24
2018-02-07T09:13:37.000Z,24
2018-02-07T09:14:37.000Z,24
2018-02-07T09:16:37.000Z,24
2018-02-07T09:17:37.000Z,24
2018-02-07T09:18:37.000Z,24
2018-02-07T09:19:37.000Z,24
2018-02-07T09:20:37.000Z,24
2018-02-07T09:21:37.000Z,23
2018-02-07T09:22:37.000Z,23
2018-02-07T09:23:37.000Z,23
2018-02-07T09:24:37.000Z,23
2018-02-07T09:25:37.000Z,23
2018-02-07T09:27:37.000Z,23
2018-02-07T09:28:37.000Z,23
2018-02-07T09:29:37.000Z,23
2018-02-07T09:30:37.000Z,23
2018-02-07T09:31:37.000Z,23
2018-02-07T09:32:37.000Z,23
2018-02-07T09:33:37.000Z,23
2018-02-07T09:34:37.000Z,23
2018-02-07T09:36:37.000Z,23
2018-02-07T09:37:37.000Z,23
2018-02-07T09:38:37.000Z,23
2018-02-07T09:39:37.000Z,23
2018-02-07T09:40:37.000Z,23
2018-02-07T09:41:37.000Z,23
2018-02-07T09:42:37.000Z,23
2018-02-07T09:43:37.000Z,23
2018-02-07T09:44:37.000Z,23
2018-02-07T09:45:37.000Z,23
2018-02-07T09:46:37.000Z,23
2018-02-07T09:48:37.000Z,23
2018-02-07T09:49:37.000Z,23
2018-02-07T09:50:37.000Z,23
2018-02-07T09:51:37.000Z,23
2018-02-07T09:52:37.000Z,23
2018-02-07T09:53:37.000Z,23
2018-02-07T09:54:37.000Z,23
2018-02-07T09:55:37.000Z,23
2018-02-07T09:56:37.000Z,23
2018-02-07T09:57:37.000Z,23
2018-02-07T09:58:37.000Z,23
2018-02-07T10:00:37.000Z,23
2018-02-07T10:01:37.000Z,23
2018-02-07T10:02:37.000Z,23
2018-02-07T10:03:37.000Z,23
2018-02-07T10:04:37.000Z,23
2018-02-07T10:06:37.000Z,23
2018-02-07T10:07:37.000Z,23
2018-02-07T10:08:37.000Z,23
2018-02-07T10:09:37.000Z,22
2018-02-07T10:10:37.000Z,23
2018-02-07T10:11:37.000Z,23
2018-02-07T10:12:37.000Z,23
2018-02-07T10:13:37.000Z,23
2018-02-07T10:14:37.000Z,22
2018-02-07T10:15:37.000Z,22
2018-02-07T10:16:37.000Z,23
2018-02-07T10:17:37.000Z,22
2018-02-07T10:18:37.000Z,22
2018-02-07T10:19:38.000Z,22
2018-02-07T10:20:38.000Z,22
2018-02-07T10:21:38.000Z,22
2018-02-07T10:23:38.000Z,22
2018-02-07T10:24:38.000Z,22
2018-02-07T10:25:38.000Z,22
2018-02-07T10:26:38.000Z,22
2018-02-07T10:27:38.000Z,23
2018-02-07T10:28:38.000Z,22
2018-02-07T10:29:38.000Z,23
2018-02-07T10:30:38.000Z,23
2018-02-07T10:31:38.000Z,23
2018-02-07T10:32:38.000Z,23
2018-02-07T10:33:38.000Z,23
2018-02-07T10:34:38.000Z,23
2018-02-07T10:35:38.000Z,23
2018-02-07T10:36:38.000Z,23
2018-02-07T10:37:38.000Z,23
2018-02-07T10:38:38.000Z,23
2018-02-07T10:39:38.000Z,23
2018-02-07T10:40:38.000Z,23
2018-02-07T10:41:38.000Z,23
2018-02-07T10:42:38.000Z,23
2018-02-07T10:43:38.000Z,23
2018-02-07T10:44:38.000Z,23
2018-02-07T10:45:38.000Z,23
2018-02-07T10:46:38.000Z,23
2018-02-07T10:47:38.000Z,23
2018-02-07T10:48:38.000Z,23
2018-02-07T10:50:38.000Z,23
2018-02-07T10:51:38.000Z,23
2018-02-07T10:52:38.000Z,23
2018-02-07T10:54:38.000Z,23
2018-02-07T10:55:38.000Z,23
2018-02-07T10:56:38.000Z,23
2018-02-07T10:57:38.000Z,23
2018-02-07T10:58:38.000Z,23
2018-02-07T10:59:38.000Z,24
2018-02-07T11:01:38.000Z,24
2018-02-07T11:02:38.000Z,24
2018-02-07T11:03:38.000Z,24
2018-02-07T11:05:38.000Z,24
2018-02-07T11:06:38.000Z,24
2018-02-07T11:07:38.000Z,24
2018-02-07T11:08:38.000Z,24
2018-02-07T11:09:38.000Z,24
2018-02-07T11:10:38.000Z,24
2018-02-07T11:11:38.000Z,24
2018-02-07T11:12:38.000Z,24
2018-02-07T11:13:38.000Z,24
2018-02-07T11:14:38.000Z,24
2018-02-07T11:15:38.000Z,24
2018-02-07T11:16:38.000Z,24
2018-02-07T11:17:38.000Z,24
2018-02-07T11:18:38.000Z,24
2018-02-07T11:20:38.000Z,24
2018-02-07T11:21:38.000Z,24
2018-02-07T11:22:37.000Z,24
2018-02-07T11:23:37.000Z,24
2018-02-07T11:24:37.000Z,24
2018-02-07T11:25:37.000Z,24
2018-02-07T11:26:37.000Z,24
2018-02-07T11:27:37.000Z,24
2018-02-07T11:29:37.000Z,24
2018-02-07T11:30:37.000Z,24
2018-02-07T11:31:37.000Z,24
2018-02-07T11:32:37.000Z,24
2018-02-07T11:33:37.000Z,25
2018-02-07T11:34:37.000Z,25
2018-02-07T11:36:37.000Z,24
2018-02-07T11:37:37.000Z,25
2018-02-07T11:38:37.000Z,25
2018-02-07T11:42:23.000Z,25
2018-02-07T11:43:23.000Z,25
2018-02-07T11:44:23.000Z,25
2018-02-07T11:45:23.000Z,25
2018-02-07T11:46:23.000Z,25
2018-02-07T11:47:23.000Z,25
2018-02-07T11:49:23.000Z,25
2018-02-07T11:50:23.000Z,25
2018-02-07T11:52:23.000Z,25
2018-02-07T11:53:23.000Z,25
2018-02-07T11:54:23.000Z,25
2018-02-07T11:55:23.000Z,25
2018-02-07T11:56:23.000Z,25
2018-02-07T11:57:23.000Z,25
2018-02-07T11:59:23.000Z,25
2018-02-07T12:00:23.000Z,25
2018-02-07T12:01:23.000Z,25
2018-02-07T12:02:23.000Z,25
2018-02-07T12:03:23.000Z,25
2018-02-07T12:05:23.000Z,25
2018-02-07T12:06:23.000Z,25
2018-02-07T12:07:23.000Z,25
2018-02-07T12:08:23.000Z,25
2018-02-07T12:09:23.000Z,25
2018-02-07T12:10:23.000Z,25
2018-02-07T12:11:23.000Z,25
2018-02-07T12:12:23.000Z,25
2018-02-07T12:13:23.000Z,25
2018-02-07T12:14:23.000Z,25
2018-02-07T12:15:23.000Z,25
2018-02-07T12:16:23.000Z,25
2018-02-07T12:17:23.000Z,25
2018-02-07T12:18:23.000Z,25
2018-02-07T12:19:23.000Z,25
2018-02-07T12:20:23.000Z,25
2018-02-07T12:21:23.000Z,25
2018-02-07T12:22:23.000Z,25
2018-02-07T12:23:23.000Z,25
2018-02-07T12:24:23.000Z,25
2018-02-07T12:26:23.000Z,25
2018-02-07T12:27:23.000Z,25
2018-02-07T12:28:23.000Z,25
2018-02-07T12:29:23.000Z,25
2018-02-07T12:30:23.000Z,25
2018-02-07T12:31:23.000Z,25
2018-02-07T12:32:23.000Z,25
2018-02-07T12:33:23.000Z,25
2018-02-07T12:34:23.000Z,25
2018-02-07T12:35:23.000Z,25
2018-02-07T12:36:23.000Z,25
2018-02-07T12:37:23.000Z,25
2018-02-07T12:38:23.000Z,25
2018-02-07T12:39:23.000Z,25
2018-02-07T12:40:23.000Z,25
2018-02-07T12:41:23.000Z,25
2018-02-07T12:42:23.000Z,25
2018-02-07T12:43:23.000Z,25
2018-02-07T12:44:23.000Z,25
2018-02-07T12:45:23.000Z,25
2018-02-07T12:46:23.000Z,25
2018-02-07T12:47:23.000Z,25
2018-02-07T12:48:23.000Z,25
2018-02-07T12:49:23.000Z,25
2018-02-07T12:50:23.000Z,25
2018-02-07T12:51:23.000Z,25
2018-02-07T12:52:23.000Z,25
2018-02-07T12:53:23.000Z,25
2018-02-07T12:54:23.000Z,25
2018-02-07T12:55:23.000Z,24
2018-02-07T12:56:23.000Z,24
2018-02-07T12:58:23.000Z,24
2018-02-07T12:59:23.000Z,23
2018-02-07T13:00:23.000Z,23
2018-02-07T13:02:23.000Z,23
2018-02-07T13:03:23.000Z,23
2018-02-07T13:05:23.000Z,23
2018-02-07T13:06:23.000Z,23
2018-02-07T13:07:23.000Z,23
2018-02-07T13:08:23.000Z,23
2018-02-07T13:09:23.000Z,22
2018-02-07T13:10:23.000Z,23
2018-02-07T13:11:23.000Z,23
2018-02-07T13:12:23.000Z,23
2018-02-07T13:13:23.000Z,22
2018-02-07T13:14:23.000Z,22
2018-02-07T13:15:23.000Z,22
2018-02-07T13:16:23.000Z,22
2018-02-07T13:17:23.000Z,22
2018-02-07T13:18:23.000Z,22
2018-02-07T13:19:23.000Z,22
2018-02-07T13:20:23.000Z,22
2018-02-07T13:21:23.000Z,22
2018-02-07T13:22:23.000Z,22
2018-02-07T13:23:23.000Z,22
2018-02-07T13:24:23.000Z,23
2018-02-07T13:25:23.000Z,22
2018-02-07T13:26:23.000Z,23
2018-02-07T13:27:23.000Z,23
2018-02-07T13:28:23.000Z,23
2018-02-07T13:29:23.000Z,23
2018-02-07T13:30:23.000Z,23
2018-02-07T13:31:23.000Z,23
2018-02-07T13:32:23.000Z,23
2018-02-07T13:33:23.000Z,23
2018-02-07T13:34:23.000Z,23
2018-02-07T13:35:23.000Z,23
2018-02-07T13:37:23.000Z,23
2018-02-07T13:38:23.000Z,23
2018-02-07T13:39:23.000Z,23
2018-02-07T13:40:23.000Z,23
2018-02-07T13:41:23.000Z,23
2018-02-07T13:42:23.000Z,23
2018-02-07T13:43:23.000Z,23
2018-02-07T13:44:23.000Z,23
2018-02-07T13:45:23.000Z,23
2018-02-07T13:47:23.000Z,23
2018-02-07T13:48:23.000Z,23
2018-02-07T13:50:23.000Z,23
2018-02-07T13:51:23.000Z,23
2018-02-07T13:52:23.000Z,23
2018-02-07T13:53:23.000Z,23
2018-02-07T13:54:23.000Z,23
2018-02-07T13:55:23.000Z,23
2018-02-07T13:56:23.000Z,24
2018-02-07T13:57:23.000Z,24
2018-02-07T13:58:23.000Z,24
2018-02-07T13:59:23.000Z,24
2018-02-07T14:00:23.000Z,24
2018-02-07T14:02:23.000Z,24
2018-02-07T14:03:23.000Z,24
2018-02-07T14:04:23.000Z,24
2018-02-07T14:05:23.000Z,24
2018-02-07T14:06:23.000Z,24
2018-02-07T14:07:23.000Z,24
2018-02-07T14:08:23.000Z,24
2018-02-07T14:09:23.000Z,24
2018-02-07T14:10:23.000Z,24
2018-02-07T14:11:23.000Z,24
2018-02-07T14:12:23.000Z,24
2018-02-07T14:13:23.000Z,24
2018-02-07T14:14:23.000Z,24
2018-02-07T14:15:23.000Z,24
2018-02-07T14:16:23.000Z,24
2018-02-07T14:17:23.000Z,24
2018-02-07T14:18:23.000Z,24
2018-02-07T14:19:23.000Z,24
2018-02-07T14:20:23.000Z,24
2018-02-07T14:21:23.000Z,24
2018-02-07T14:23:23.000Z,24
2018-02-07T14:24:23.000Z,24
2018-02-07T14:25:23.000Z,24
2018-02-07T14:26:23.000Z,24
2018-02-07T14:27:23.000Z,24
2018-02-07T14:28:23.000Z,24
2018-02-07T14:29:23.000Z,24
2018-02-07T14:30:23.000Z,24
2018-02-07T14:31:23.000Z,24
2018-02-07T14:32:23.000Z,24
2018-02-07T14:33:23.000Z,24
2018-02-07T14:34:23.000Z,24
2018-02-07T14:35:23.000Z,24
2018-02-07T14:36:23.000Z,24
2018-02-07T14:38:23.000Z,23
2018-02-07T14:39:23.000Z,23
2018-02-07T14:40:23.000Z,23
2018-02-07T14:41:23.000Z,23
2018-02-07T14:42:23.000Z,23
2018-02-07T14:44:23.000Z,23
2018-02-07T14:45:23.000Z,23
2018-02-07T14:46:23.000Z,23
2018-02-07T14:47:23.000Z,23
2018-02-07T14:48:23.000Z,23
2018-02-07T14:49:23.000Z,24
2018-02-07T14:50:23.000Z,24
2018-02-07T14:51:23.000Z,24
2018-02-07T14:52:23.000Z,24
2018-02-07T14:53:23.000Z,24
2018-02-07T14:54:23.000Z,24
2018-02-07T14:55:23.000Z,24
2018-02-07T14:56:23.000Z,24
2018-02-07T14:57:23.000Z,24
2018-02-07T14:58:23.000Z,24
2018-02-07T15:00:23.000Z,24
2018-02-07T15:01:23.000Z,24
2018-02-07T15:02:23.000Z,25
2018-02-07T15:03:23.000Z,24
2018-02-07T15:04:23.000Z,25
2018-02-07T15:05:23.000Z,24
2018-02-07T15:06:23.000Z,25
2018-02-07T15:07:23.000Z,25
2018-02-07T15:08:23.000Z,25
2018-02-07T15:09:23.000Z,25
2018-02-07T15:10:23.000Z,25
2018-02-07T15:11:23.000Z,25
2018-02-07T15:13:23.000Z,25
2018-02-07T15:14:23.000Z,25
2018-02-07T15:15:23.000Z,25
2018-02-07T15:16:23.000Z,25
2018-02-07T15:17:23.000Z,25
2018-02-07T15:18:23.000Z,25
2018-02-07T15:19:23.000Z,25
2018-02-07T15:21:23.000Z,25
2018-02-07T15:22:23.000Z,25
2018-02-07T15:24:23.000Z,25
2018-02-07T15:25:23.000Z,25
2018-02-07T15:26:23.000Z,25
2018-02-07T15:27:23.000Z,26
2018-02-07T15:29:23.000Z,25
2018-02-07T15:30:23.000Z,25
2018-02-07T15:31:23.000Z,25
2018-02-07T15:32:23.000Z,25
2018-02-07T15:33:23.000Z,26
2018-02-07T15:34:23.000Z,25
2018-02-07T15:35:23.000Z,25
2018-02-07T15:36:23.000Z,25
2018-02-07T15:37:24.000Z,25
2018-02-07T15:38:24.000Z,25
2018-02-07T15:39:24.000Z,25
2018-02-07T15:40:24.000Z,25
2018-02-07T15:41:24.000Z,25
2018-02-07T15:42:24.000Z,25
2018-02-07T15:43:24.000Z,25
2018-02-07T15:44:24.000Z,25
2018-02-07T15:46:24.000Z,25
2018-02-07T15:48:24.000Z,25
2018-02-07T15:49:24.000Z,26
2018-02-07T15:50:24.000Z,26
2018-02-07T15:51:24.000Z,26
2018-02-07T15:52:24.000Z,26
2018-02-07T15:53:24.000Z,26
2018-02-07T15:55:24.000Z,26
2018-02-07T15:56:24.000Z,26
2018-02-07T15:57:24.000Z,26
2018-02-07T15:58:24.000Z,26
2018-02-07T16:00:24.000Z,26
2018-02-07T16:01:24.000Z,26
2018-02-07T16:02:24.000Z,26
2018-02-07T16:04:24.000Z,26
2018-02-07T16:05:24.000Z,26
2018-02-07T16:06:24.000Z,26